Time;durP1;ratioP1;P1;durP2;ratioP2;P2;SDS_P1;SDS_P2;PMS_P1;PMS_P2;Temp;Humidity;BMP_temperature;BMP_pressure;BME280_temperature;BME280_humidity;BME280_pressure;Samples;Min_cycle;Max_cycle;Signal;HPM_P1;HPM_P2
2022/03/21 00:00:53;;;;;;;18.90;6.97;;;0.40;40.30;;;;;;6241502;23;19988;-79
2022/03/21 00:03:28;;;;;;;13.98;6.20;;;0.70;39.30;;;;;;6241661;23;19996;-81
2022/03/21 00:05:55;;;;;;;16.73;6.22;;;1.20;38.40;;;;;;6242493;23;20031;-80
2022/03/21 00:08:24;;;;;;;18.85;6.30;;;1.70;37.50;;;;;;6243038;23;20012;-82
2022/03/21 00:10:51;;;;;;;11.80;6.00;;;2.10;36.50;;;;;;6242578;22;20091;-79
2022/03/21 00:13:18;;;;;;;17.23;6.43;;;2.40;35.60;;;;;;6243053;23;20016;-80
2022/03/21 00:15:46;;;;;;;14.55;6.63;;;2.80;35.00;;;;;;6217169;23;20011;-79
2022/03/21 00:18:16;;;;;;;16.27;7.22;;;3.00;34.40;;;;;;6242759;23;19988;-79
2022/03/21 00:20:43;;;;;;;15.55;7.82;;;3.20;33.90;;;;;;6243643;23;20056;-80
2022/03/21 00:23:10;;;;;;;15.57;7.45;;;3.30;33.50;;;;;;6243450;23;20016;-80
2022/03/21 00:25:36;;;;;;;13.98;6.80;;;3.50;33.10;;;;;;6216349;23;20008;-81
2022/03/21 00:28:03;;;;;;;16.15;7.50;;;3.50;32.80;;;;;;6243415;23;20012;-80
2022/03/21 00:30:29;;;;;;;13.88;7.50;;;3.60;32.70;;;;;;6243294;22;19992;-81
2022/03/21 00:32:55;;;;;;;27.23;8.32;;;3.60;32.80;;;;;;6243157;23;20012;-80
2022/03/21 00:35:22;;;;;;;16.90;8.23;;;3.60;32.40;;;;;;6217526;23;19992;-80
2022/03/21 00:37:50;;;;;;;21.55;8.25;;;3.70;32.40;;;;;;6217688;23;19981;-81
2022/03/21 00:40:18;;;;;;;15.90;7.88;;;3.60;32.30;;;;;;6243642;22;20031;-81
2022/03/21 00:42:45;;;;;;;17.48;7.05;;;3.60;32.30;;;;;;6217531;23;20044;-81
2022/03/21 00:45:17;;;;;;;16.30;8.70;;;3.50;32.50;;;;;;6243712;22;20011;-81
2022/03/21 00:47:44;;;;;;;16.25;7.72;;;3.50;32.50;;;;;;6217781;23;19985;-82
2022/03/21 00:50:13;;;;;;;15.20;7.60;;;3.40;32.70;;;;;;6243433;23;20100;-81
2022/03/21 00:52:41;;;;;;;15.15;7.72;;;3.30;32.90;;;;;;6242720;23;20016;-80
2022/03/21 00:55:09;;;;;;;22.52;9.48;;;3.20;33.10;;;;;;6217339;23;20455;-81
2022/03/21 00:57:35;;;;;;;22.00;9.13;;;3.10;33.40;;;;;;6242592;23;20084;-81
2022/03/21 01:00:06;;;;;;;21.33;8.30;;;3.00;33.50;;;;;;6242969;23;20048;-80
2022/03/21 01:02:32;;;;;;;18.05;8.25;;;3.00;33.70;;;;;;6217752;23;20028;-80
2022/03/21 01:04:58;;;;;;;15.18;7.57;;;3.00;33.80;;;;;;6242693;23;20004;-79
2022/03/21 01:07:24;;;;;;;14.95;7.72;;;3.00;33.70;;;;;;6242412;23;20007;-80
2022/03/21 01:09:50;;;;;;;;;;;3.00;34.00;;;;;;6243468;23;20023;-80
2022/03/21 01:12:15;;;;;;;22.80;7.50;;;2.90;33.90;;;;;;6243031;23;19931;-82
2022/03/21 01:14:41;;;;;;;16.50;7.20;;;3.00;34.00;;;;;;6217067;23;19989;-83
2022/03/21 01:17:07;;;;;;;19.90;8.38;;;2.90;34.00;;;;;;6243087;23;20049;-80
2022/03/21 01:19:33;;;;;;;33.78;12.20;;;2.90;34.20;;;;;;6242714;23;20028;-80
2022/03/21 01:21:59;;;;;;;44.80;14.63;;;2.70;34.70;;;;;;6216319;23;20011;-81
2022/03/21 01:24:26;;;;;;;62.47;19.40;;;2.50;35.40;;;;;;6242918;22;20019;-82
2022/03/21 01:26:52;;;;;;;63.40;20.55;;;2.20;36.30;;;;;;6215828;23;20004;-81
2022/03/21 01:29:18;;;;;;;78.82;24.75;;;2.00;36.90;;;;;;6241659;23;20048;-80
2022/03/21 01:31:44;;;;;;;50.88;17.38;;;1.70;37.90;;;;;;6242753;22;20004;-80
2022/03/21 01:34:10;;;;;;;26.85;11.27;;;1.50;38.40;;;;;;6216409;23;20004;-81
2022/03/21 01:36:36;;;;;;;;;;;1.30;38.90;;;;;;6242695;23;19996;-82
2022/03/21 01:39:02;;;;;;;14.93;7.20;;;1.10;39.60;;;;;;6216176;23;19908;-82
2022/03/21 01:41:28;;;;;;;26.35;8.73;;;1.00;39.90;;;;;;6241806;23;20001;-80
2022/03/21 01:43:57;;;;;;;;;;;0.90;40.30;;;;;;6242085;23;20015;-81
2022/03/21 01:46:24;;;;;;;14.80;7.00;;;0.80;40.70;;;;;;6243260;23;19928;-81
2022/03/21 01:48:50;;;;;;;14.68;7.53;;;0.70;40.90;;;;;;6216273;23;20012;-81
2022/03/21 01:51:15;;;;;;;;;;;0.60;41.90;;;;;;6242664;23;19992;-81
2022/03/21 01:56:27;;;;;;;13.95;6.90;;;0.60;41.40;;;;;;6242428;23;20019;-81
2022/03/21 01:58:54;;;;;;;14.40;7.65;;;0.50;41.30;;;;;;6241562;23;20016;-82
2022/03/21 02:01:19;;;;;;;12.70;6.47;;;0.50;41.10;;;;;;6242300;23;20007;-80
2022/03/21 02:03:45;;;;;;;;;;;0.50;41.20;;;;;;6242022;23;20000;-81
2022/03/21 02:06:11;;;;;;;15.77;7.03;;;0.50;41.40;;;;;;6215402;23;19910;-81
2022/03/21 02:08:37;;;;;;;19.48;8.10;;;0.50;41.40;;;;;;6242245;23;19996;-81
2022/03/21 02:11:03;;;;;;;;;;;0.50;41.50;;;;;;6241957;23;19992;-81
2022/03/21 02:13:29;;;;;;;14.85;6.90;;;0.50;42.30;;;;;;6242677;23;19940;-81
2022/03/21 02:15:55;;;;;;;;;;;0.40;41.90;;;;;;6216117;23;20077;-81
2022/03/21 02:18:24;;;;;;;19.15;7.25;;;0.50;41.80;;;;;;6242003;23;19904;-82
2022/03/21 02:20:53;;;;;;;18.05;6.85;;;0.50;41.50;;;;;;6242331;23;19996;-81
2022/03/21 02:23:44;;;;;;;20.45;8.35;;;0.60;41.30;;;;;;6241461;23;20015;-81
2022/03/21 02:26:12;;;;;;;20.30;8.25;;;0.60;41.20;;;;;;6242212;23;20000;-80
2022/03/21 02:28:38;;;;;;;15.98;7.97;;;0.60;41.00;;;;;;6241109;23;19992;-81
2022/03/21 02:31:05;;;;;;;21.30;8.52;;;0.70;40.70;;;;;;6215305;23;20001;-81
2022/03/21 02:33:32;;;;;;;21.73;9.18;;;0.70;40.40;;;;;;6215293;23;20016;-79
2022/03/21 02:35:58;;;;;;;;;;;0.70;40.20;;;;;;6215536;23;19999;-81
2022/03/21 02:38:25;;;;;;;23.60;9.18;;;0.80;40.00;;;;;;6243123;23;19916;-81
2022/03/21 02:40:51;;;;;;;18.20;9.20;;;0.80;39.90;;;;;;6242168;22;20012;-80
2022/03/21 02:43:16;;;;;;;;;;;0.80;39.90;;;;;;6241462;23;19984;-80
2022/03/21 02:45:42;;;;;;;25.92;10.25;;;0.80;39.80;;;;;;6243105;23;19906;-81
2022/03/21 02:48:08;;;;;;;;;;;0.80;39.80;;;;;;6217287;23;20017;-80
2022/03/21 02:51:07;;;;;;;20.38;9.63;;;0.80;39.90;;;;;;6240118;23;19884;-80
2022/03/21 02:53:37;;;;;;;21.73;8.38;;;0.70;40.20;;;;;;6207123;23;20028;-80
2022/03/21 02:56:04;;;;;;;17.08;7.88;;;0.80;40.30;;;;;;6240189;23;19996;-81
2022/03/21 02:58:30;;;;;;;20.08;9.40;;;0.70;40.40;;;;;;6240182;23;20076;-80
2022/03/21 03:01:13;;;;;;;;;;;0.60;40.60;;;;;;6215253;23;20013;-80
2022/03/21 03:03:51;;;;;;;17.90;7.97;;;0.60;41.00;;;;;;6239722;23;19900;-80
2022/03/21 03:06:17;;;;;;;17.65;7.32;;;0.60;41.10;;;;;;6240970;23;19980;-81
2022/03/21 03:08:43;;;;;;;;;;;0.50;41.10;;;;;;6241363;23;20005;-80
2022/03/21 03:11:09;;;;;;;22.75;9.60;;;0.50;41.10;;;;;;6241106;23;19891;-81
2022/03/21 03:13:35;;;;;;;20.08;7.95;;;0.50;41.20;;;;;;6241193;23;20094;-81
2022/03/21 03:16:01;;;;;;;;;;;0.60;41.30;;;;;;6241240;23;20009;-80
2022/03/21 03:18:27;;;;;;;17.85;8.25;;;0.50;41.30;;;;;;6240819;23;19915;-81
2022/03/21 03:20:55;;;;;;;20.40;8.77;;;0.50;41.40;;;;;;6214761;23;20008;-80
2022/03/21 03:23:23;;;;;;;16.05;7.72;;;0.60;41.40;;;;;;6242157;23;20016;-80
2022/03/21 03:25:59;;;;;;;18.20;8.23;;;0.60;41.30;;;;;;6242135;23;20000;-82
2022/03/21 03:28:25;;;;;;;23.33;7.10;;;0.70;41.10;;;;;;6215685;23;20000;-81
2022/03/21 03:30:51;;;;;;;;;;;0.80;40.90;;;;;;6216160;23;20005;-81
2022/03/21 03:33:17;;;;;;;16.65;7.35;;;0.90;40.70;;;;;;6213824;23;19956;-82
2022/03/21 03:35:43;;;;;;;;;;;1.00;40.40;;;;;;6214305;23;20011;-79
2022/03/21 03:38:09;;;;;;;15.88;7.50;;;1.00;40.30;;;;;;6240406;23;19887;-81
2022/03/21 03:40:35;;;;;;;19.70;8.55;;;0.90;40.40;;;;;;6240423;23;20040;-81
2022/03/21 03:43:00;;;;;;;;;;;0.90;40.60;;;;;;6240340;23;20012;-81
2022/03/21 03:45:26;;;;;;;21.02;9.13;;;0.80;40.80;;;;;;6240876;23;19899;-80
2022/03/21 03:47:52;;;;;;;;;;;0.70;41.20;;;;;;6241881;23;20338;-80
2022/03/21 03:50:19;;;;;;;29.47;11.20;;;0.50;41.80;;;;;;6241143;23;19888;-81
2022/03/21 03:52:46;;;;;;;23.00;10.38;;;0.50;42.20;;;;;;6241167;23;19997;-80
2022/03/21 03:55:13;;;;;;;21.50;10.27;;;0.50;42.40;;;;;;6214832;23;20003;-81
2022/03/21 03:57:40;;;;;;;20.58;9.77;;;0.40;42.50;;;;;;6241070;23;20003;-80
2022/03/21 04:00:09;;;;;;;23.48;10.50;;;0.40;42.60;;;;;;6214665;23;20023;-80
2022/03/21 04:03:44;;;;;;;18.67;9.77;;;0.50;42.70;;;;;;6241506;23;19996;-82
2022/03/21 04:05:21;;;;;;;25.38;10.57;;;0.50;42.50;;;;;;6240540;23;20000;-80
2022/03/21 04:07:48;;;;;;;21.52;9.40;;;0.60;42.40;;;;;;6240900;23;20105;-81
2022/03/21 04:10:14;;;;;;;24.75;9.45;;;0.70;42.30;;;;;;6241158;23;20012;-81
2022/03/21 04:12:43;;;;;;;19.17;8.93;;;0.70;42.10;;;;;;6215020;23;19996;-81
2022/03/21 04:15:10;;;;;;;18.85;9.18;;;0.70;42.00;;;;;;6241007;23;20012;-81
2022/03/21 04:17:36;;;;;;;15.93;8.13;;;0.70;41.90;;;;;;6240617;23;19985;-81
2022/03/21 04:20:04;;;;;;;18.17;8.48;;;0.70;41.90;;;;;;6214575;23;19997;-80
2022/03/21 04:22:30;;;;;;;20.25;8.80;;;0.70;41.90;;;;;;6215283;23;20012;-81
2022/03/21 04:24:56;;;;;;;19.73;8.85;;;0.80;42.10;;;;;;6240455;23;19993;-81
2022/03/21 04:27:22;;;;;;;19.85;8.13;;;0.70;42.10;;;;;;6241695;23;19993;-81
2022/03/21 04:29:48;;;;;;;;;;;0.80;41.90;;;;;;6214433;23;20007;-81
2022/03/21 04:32:14;;;;;;;16.38;7.85;;;0.80;41.90;;;;;;6214725;23;19908;-82
2022/03/21 04:34:40;;;;;;;20.33;8.95;;;0.80;41.70;;;;;;6214903;23;20048;-80
2022/03/21 04:37:06;;;;;;;20.48;9.65;;;0.80;41.80;;;;;;6241023;23;20005;-81
2022/03/21 04:39:32;;;;;;;;;;;0.80;41.70;;;;;;6241467;23;20005;-81
2022/03/21 04:41:59;;;;;;;30.77;12.23;;;1.00;41.60;;;;;;6240490;23;19900;-81
2022/03/21 04:44:24;;;;;;;28.30;13.60;;;0.90;41.60;;;;;;6241434;23;20489;-81
2022/03/21 04:46:50;;;;;;;;;;;1.00;41.50;;;;;;6215186;23;20027;-81
2022/03/21 04:49:16;;;;;;;23.10;10.10;;;0.90;41.40;;;;;;6241264;23;20370;-81
2022/03/21 04:51:42;;;;;;;;;;;1.00;41.40;;;;;;6217445;23;19997;-82
2022/03/21 04:54:08;;;;;;;19.27;10.05;;;1.20;41.50;;;;;;6242859;23;20435;-80
2022/03/21 04:56:34;;;;;;;;;;;1.20;41.50;;;;;;6243669;23;20004;-81
2022/03/21 04:58:59;;;;;;;14.73;6.78;;;1.10;41.60;;;;;;6242857;23;19960;-82
2022/03/21 05:01:25;;;;;;;16.13;7.47;;;1.00;41.50;;;;;;6216821;23;20004;-81
2022/03/21 05:03:51;;;;;;;;;;;1.20;41.40;;;;;;6244009;22;20053;-81
2022/03/21 05:06:17;;;;;;;19.40;8.75;;;1.20;41.30;;;;;;6243328;23;19927;-82
2022/03/21 05:08:44;;;;;;;19.63;7.75;;;1.20;41.30;;;;;;6243179;23;20004;-81
2022/03/21 05:11:10;;;;;;;20.92;9.25;;;1.30;41.10;;;;;;6216785;23;19989;-81
2022/03/21 05:13:37;;;;;;;;;;;1.30;41.00;;;;;;6243085;23;20005;-81
2022/03/21 05:16:07;;;;;;;19.15;8.70;;;1.40;41.00;;;;;;6242888;23;19911;-80
2022/03/21 05:18:36;;;;;;;24.25;10.23;;;1.40;40.80;;;;;;6241860;23;20015;-80
2022/03/21 05:21:03;;;;;;;24.33;10.60;;;1.50;40.70;;;;;;6216899;23;20004;-81
2022/03/21 05:31:42;;;;;;;23.27;9.38;;;1.80;40.30;;;;;;6241216;23;20038;-80
2022/03/21 05:36:53;;;;;;;16.33;8.48;;;2.00;40.20;;;;;;6240903;22;20084;-81
2022/03/21 05:39:19;;;;;;;22.83;9.18;;;2.10;39.90;;;;;;6243044;23;19997;-81
2022/03/21 05:41:46;;;;;;;17.98;9.55;;;2.20;39.80;;;;;;6241191;23;20001;-81
2022/03/21 05:44:11;;;;;;;15.20;8.20;;;2.30;39.70;;;;;;6214946;23;20059;-81
2022/03/21 05:46:38;;;;;;;17.30;9.00;;;2.50;39.60;;;;;;6242099;23;19989;-79
2022/03/21 05:49:04;;;;;;;14.05;7.75;;;2.80;39.20;;;;;;6240702;23;19985;-79
2022/03/21 05:51:31;;;;;;;;;;;3.20;38.50;;;;;;6233400;22;20020;-79
2022/03/21 05:53:58;;;;;;;14.43;7.45;;;4.00;36.40;;;;;;6240646;22;19907;-80
2022/03/21 05:56:27;;;;;;;18.95;7.97;;;4.70;34.60;;;;;;6240655;23;20024;-79
2022/03/21 05:58:53;;;;;;;16.42;7.80;;;5.40;33.00;;;;;;6236923;23;20009;-79
2022/03/21 06:01:23;;;;;;;14.70;7.85;;;6.10;30.80;;;;;;6243467;22;19989;-79
2022/03/21 06:03:54;;;;;;;20.40;8.60;;;6.60;29.60;;;;;;6244950;22;20013;-77
2022/03/21 06:06:24;;;;;;;17.08;9.57;;;7.20;28.30;;;;;;6244873;22;19989;-79
2022/03/21 06:08:51;;;;;;;16.52;8.30;;;7.70;27.50;;;;;;6244509;22;20024;-79
2022/03/21 06:11:17;;;;;;;17.27;8.18;;;8.00;26.90;;;;;;6245738;22;20004;-78
2022/03/21 06:13:43;;;;;;;19.58;9.18;;;8.20;26.50;;;;;;6219894;23;20064;-78
2022/03/21 06:16:10;;;;;;;;;;;8.30;26.30;;;;;;6219307;23;20009;-78
2022/03/21 06:18:37;;;;;;;17.40;8.37;;;8.50;25.80;;;;;;6244162;22;19908;-79
2022/03/21 06:21:05;;;;;;;20.88;9.23;;;8.90;25.60;;;;;;6241853;23;20036;-81
2022/03/21 06:23:31;;;;;;;15.77;8.15;;;9.10;25.00;;;;;;6245232;22;19985;-79
2022/03/21 06:25:58;;;;;;;;;;;9.30;24.40;;;;;;6245302;22;19989;-79
2022/03/21 06:28:25;;;;;;;18.02;8.10;;;9.40;24.20;;;;;;6245132;22;19895;-78
2022/03/21 06:30:53;;;;;;;18.50;8.80;;;9.60;24.10;;;;;;6244125;22;20044;-79
2022/03/21 06:33:21;;;;;;;14.25;7.38;;;9.90;23.80;;;;;;6244439;23;20020;-77
2022/03/21 06:35:48;;;;;;;13.85;7.25;;;9.90;23.30;;;;;;6244557;23;20015;-78
2022/03/21 06:38:14;;;;;;;13.65;7.63;;;10.50;22.70;;;;;;6244413;22;20008;-79
2022/03/21 09:36:48;;;;;;;12.13;6.40;;;15.40;18.40;;;;;;6186652;23;20095;-87
2022/03/21 09:39:14;;;;;;;13.13;6.82;;;15.60;18.50;;;;;;6215101;23;20290;-86
2022/03/21 09:41:40;;;;;;;9.60;5.97;;;16.30;17.60;;;;;;6243279;22;19981;-77
2022/03/21 09:44:09;;;;;;;8.35;5.72;;;16.70;16.60;;;;;;6246190;22;19989;-76
2022/03/21 09:46:39;;;;;;;14.90;7.32;;;16.40;16.50;;;;;;6246251;22;19993;-74
2022/03/21 09:49:12;;;;;;;11.07;6.65;;;16.20;16.70;;;;;;6246148;22;19992;-77
2022/03/21 09:51:39;;;;;;;13.32;6.40;;;16.10;16.70;;;;;;6218337;23;19993;-85
2022/03/21 09:54:05;;;;;;;11.38;6.80;;;16.50;16.70;;;;;;6245164;22;20027;-88
2022/03/21 09:56:31;;;;;;;17.77;6.43;;;16.50;16.60;;;;;;6239017;23;20001;-84
2022/03/21 09:59:00;;;;;;;10.88;6.00;;;16.50;16.50;;;;;;6219494;23;20008;-87
2022/03/21 10:01:32;;;;;;;16.63;7.85;;;16.30;16.60;;;;;;6213431;23;20016;-85
2022/03/21 10:03:58;;;;;;;12.15;6.85;;;16.40;16.70;;;;;;6213558;23;20036;-87
2022/03/21 10:06:36;;;;;;;14.13;6.20;;;16.30;16.30;;;;;;6197749;23;20442;-87
2022/03/21 10:09:06;;;;;;;10.60;6.25;;;16.60;16.50;;;;;;6238460;23;20011;-84
2022/03/21 10:11:32;;;;;;;13.90;6.32;;;16.50;16.10;;;;;;6219673;23;19989;-80
2022/03/21 10:14:00;;;;;;;12.38;6.40;;;16.20;16.00;;;;;;6236514;23;20009;-87
2022/03/21 10:16:25;;;;;;;13.68;7.40;;;16.10;16.20;;;;;;6213145;23;20496;-84
2022/03/21 10:18:55;;;;;;;10.52;6.38;;;16.20;16.70;;;;;;6212735;23;20008;-85
2022/03/21 10:21:24;;;;;;;10.82;6.38;;;16.30;16.20;;;;;;6199715;23;20055;-82
2022/03/21 10:24:07;;;;;;;12.35;6.47;;;16.80;16.00;;;;;;6245379;22;19996;-76
2022/03/21 10:26:34;;;;;;;11.68;6.45;;;17.10;15.50;;;;;;6245614;22;19989;-85
2022/03/21 10:29:05;;;;;;;11.13;6.55;;;16.90;16.10;;;;;;6237960;23;20000;-85
2022/03/21 10:31:41;;;;;;;9.63;5.97;;;16.80;16.40;;;;;;6214463;22;20008;-78
2022/03/21 10:34:10;;;;;;;;;;;16.80;15.50;;;;;;6245510;23;19989;-77
2022/03/21 10:36:57;;;;;;;15.95;7.13;;;16.50;15.60;;;;;;6219315;23;19906;-81
2022/03/21 10:39:23;;;;;;;10.43;6.60;;;15.60;16.20;;;;;;6245224;22;20001;-80
2022/03/21 10:41:53;;;;;;;;;;;14.60;17.30;;;;;;6219307;22;19993;-79
2022/03/21 10:44:20;;;;;;;10.75;6.43;;;14.20;17.60;;;;;;6244776;22;19895;-80
2022/03/21 10:46:54;;;;;;;10.20;5.95;;;13.80;18.10;;;;;;6244103;22;19991;-79
2022/03/21 10:49:29;;;;;;;9.63;5.68;;;13.50;17.70;;;;;;6243609;23;19992;-80
2022/03/21 10:51:55;;;;;;;11.80;6.22;;;13.20;17.40;;;;;;6218150;23;20005;-78
2022/03/21 10:54:48;;;;;;;8.68;5.47;;;13.10;17.60;;;;;;6244693;22;19989;-80
2022/03/21 10:57:40;;;;;;;20.02;6.47;;;13.00;17.90;;;;;;6243285;23;20008;-81
2022/03/21 11:00:14;;;;;;;12.85;6.97;;;12.70;18.70;;;;;;6216415;23;20004;-81
2022/03/21 11:03:06;;;;;;;13.90;5.32;;;12.70;18.80;;;;;;6218772;22;20052;-78
2022/03/21 11:05:40;;;;;;;11.98;6.93;;;12.60;19.00;;;;;;6242316;22;19993;-75
2022/03/21 11:08:10;;;;;;;7.93;5.20;;;12.50;18.70;;;;;;6245352;22;19985;-78
2022/03/21 11:10:37;;;;;;;12.80;5.70;;;12.40;19.10;;;;;;6245284;22;20040;-78
2022/03/21 11:13:04;;;;;;;19.85;6.97;;;12.30;18.80;;;;;;6245252;22;19993;-76
2022/03/21 11:15:32;;;;;;;9.55;5.80;;;12.30;18.90;;;;;;6244967;22;20008;-75
2022/03/21 11:17:58;;;;;;;13.48;7.03;;;12.20;19.10;;;;;;6245099;22;19984;-78
2022/03/21 11:20:24;;;;;;;;;;;12.50;18.70;;;;;;6245678;22;19991;-76
2022/03/21 11:22:52;;;;;;;10.65;5.60;;;12.50;17.90;;;;;;6219638;22;19911;-78
2022/03/21 11:25:21;;;;;;;11.38;6.18;;;12.30;18.40;;;;;;6219388;22;19993;-78
2022/03/21 11:28:14;;;;;;;9.68;5.60;;;12.30;18.60;;;;;;6245232;22;20008;-77
2022/03/21 11:30:52;;;;;;;9.13;5.03;;;12.40;18.40;;;;;;6219592;23;19993;-77
2022/03/21 11:33:38;;;;;;;14.95;5.45;;;12.40;18.20;;;;;;6219224;22;19997;-80
2022/03/21 11:36:10;;;;;;;10.27;6.05;;;12.20;18.20;;;;;;6245245;22;20039;-79
2022/03/21 11:54:38;;;;;;;7.50;4.90;;;12.30;18.70;;;;;;6160636;22;20061;-78
2022/03/21 11:57:16;;;;;;;9.15;5.43;;;12.20;18.70;;;;;;6246694;23;20016;-81
2022/03/21 11:59:43;;;;;;;10.10;5.72;;;12.20;18.50;;;;;;6241992;23;20023;-79
2022/03/21 12:02:13;;;;;;;11.63;6.15;;;12.20;18.90;;;;;;6271669;23;19984;-79
2022/03/21 12:04:56;;;;;;;8.45;4.95;;;12.20;19.00;;;;;;6269296;23;20050;-79
2022/03/21 12:07:27;;;;;;;9.10;4.65;;;12.50;18.50;;;;;;6273175;22;20030;-77
2022/03/21 14:13:19;;;;;;;9.80;5.85;;;13.10;17.70;;;;;;6155880;23;20058;31
2022/03/21 14:15:46;;;;;;;11.35;5.38;;;13.00;17.90;;;;;;6097096;23;20002;-78
2022/03/21 14:18:23;;;;;;;13.25;6.32;;;13.00;17.90;;;;;;6123992;23;20062;-80
2022/03/21 14:20:50;;;;;;;9.50;5.03;;;13.10;18.00;;;;;;6124736;23;20061;-80
2022/03/21 14:23:16;;;;;;;8.10;4.95;;;13.10;17.90;;;;;;6124394;23;20051;-79
2022/03/21 14:28:26;;;;;;;13.40;4.93;;;13.20;17.70;;;;;;6126494;23;19897;-80
2022/03/21 14:30:52;;;;;;;12.10;5.20;;;13.20;17.90;;;;;;6126333;23;20026;-80
2022/03/21 14:33:18;;;;;;;;;;;13.20;18.00;;;;;;6126427;23;19994;-79
2022/03/21 14:35:44;;;;;;;10.55;5.43;;;13.20;17.90;;;;;;6101658;23;19945;-79
2022/03/21 17:43:50;;;;;;;13.43;7.47;;;8.00;25.60;;;;;;6163209;23;20021;-81
2022/03/21 17:46:17;;;;;;;26.55;12.35;;;7.90;25.80;;;;;;6185283;23;20041;-81
2022/03/21 17:48:44;;;;;;;64.30;32.25;;;7.70;25.90;;;;;;6159562;23;20022;-79
2022/03/21 17:51:10;;;;;;;51.28;23.42;;;7.50;26.10;;;;;;6184881;23;19986;-80
2022/03/21 17:53:37;;;;;;;37.28;18.98;;;7.40;27.00;;;;;;6185537;23;20005;-74
2022/03/21 17:56:10;;;;;;;35.00;19.13;;;7.30;26.80;;;;;;6184634;23;20006;-78
2022/03/21 17:58:37;;;;;;;25.63;14.48;;;7.10;26.90;;;;;;6159362;23;20009;-77
2022/03/21 18:01:04;;;;;;;23.05;12.93;;;7.00;27.00;;;;;;6185838;23;20047;-76
2022/03/21 18:03:31;;;;;;;25.60;10.73;;;6.90;27.20;;;;;;6185501;23;20010;-76
2022/03/21 18:05:58;;;;;;;20.10;11.45;;;6.80;27.20;;;;;;6160683;23;19989;-78
2022/03/21 18:08:25;;;;;;;15.00;8.73;;;6.80;27.30;;;;;;6185871;23;19990;-76
2022/03/21 18:10:55;;;;;;;20.23;10.77;;;6.80;27.40;;;;;;6160692;23;19990;-75
2022/03/21 18:13:22;;;;;;;23.35;12.80;;;6.80;27.40;;;;;;6185536;23;20037;-74
2022/03/21 18:15:48;;;;;;;27.25;13.02;;;6.80;27.40;;;;;;6185780;23;20013;-76
2022/03/21 18:18:19;;;;;;;38.30;16.35;;;6.70;27.40;;;;;;6185220;23;20004;-75
2022/03/21 18:20:50;;;;;;;45.08;19.10;;;6.80;27.40;;;;;;6185634;23;20049;-80
2022/03/21 18:23:17;;;;;;;47.53;22.77;;;6.70;27.30;;;;;;6185636;23;19999;-77
2022/03/21 18:25:44;;;;;;;85.65;37.83;;;6.60;27.60;;;;;;6171967;23;19996;-77
2022/03/21 18:28:12;;;;;;;85.90;41.92;;;6.50;27.80;;;;;;6160087;23;19998;-81
2022/03/21 18:30:38;;;;;;;65.22;30.17;;;6.40;27.90;;;;;;6185169;23;19990;-78
2022/03/21 18:33:05;;;;;;;40.80;22.10;;;6.30;27.90;;;;;;6160258;23;19998;-75
2022/03/21 18:35:31;;;;;;;40.75;21.45;;;6.30;28.00;;;;;;6185639;23;20029;-77
2022/03/21 19:33:11;;;;;;;63.15;27.92;;;4.70;31.20;;;;;;6141736;23;20061;-81
2022/03/21 19:35:41;;;;;;;51.05;24.17;;;4.70;31.40;;;;;;6127661;23;20003;-82
2022/03/21 19:38:06;;;;;;;74.68;31.60;;;4.60;31.50;;;;;;6154746;23;19986;-80
2022/03/21 19:40:35;;;;;;;81.50;37.05;;;4.50;31.90;;;;;;6152296;23;20053;-81
2022/03/21 19:43:03;;;;;;;83.13;36.10;;;4.40;32.80;;;;;;6152388;23;19990;-81
2022/03/21 19:45:32;;;;;;;86.57;37.05;;;4.40;32.50;;;;;;6153834;23;20515;-81
2022/03/21 19:48:01;;;;;;;64.40;31.92;;;4.40;32.50;;;;;;6125118;23;20006;-81
2022/03/21 19:50:27;;;;;;;66.72;31.83;;;4.30;32.10;;;;;;6150187;23;20013;-80
2022/03/21 19:52:55;;;;;;;62.95;31.05;;;4.40;32.20;;;;;;6127326;23;20013;-80
2022/03/21 19:55:22;;;;;;;60.78;28.60;;;4.30;32.50;;;;;;6128490;23;20010;-80
2022/03/21 19:57:50;;;;;;;55.22;23.75;;;4.30;32.50;;;;;;6152347;23;20010;-80
2022/03/21 20:00:18;;;;;;;39.70;18.58;;;4.30;32.40;;;;;;6149258;23;20013;-79
2022/03/21 20:02:44;;;;;;;39.08;17.25;;;4.20;32.10;;;;;;6151230;23;20009;-82
2022/03/21 20:05:11;;;;;;;65.22;24.77;;;4.20;32.00;;;;;;6152997;23;20017;-81
2022/03/21 20:07:38;;;;;;;59.47;25.13;;;4.20;32.40;;;;;;6153302;23;20002;-80
2022/03/21 20:10:07;;;;;;;114.43;41.35;;;4.20;32.30;;;;;;6150750;23;20010;-80
2022/03/21 20:12:34;;;;;;;82.82;33.20;;;4.20;32.30;;;;;;6126892;23;20042;-79
2022/03/21 20:15:00;;;;;;;109.68;41.90;;;4.10;32.60;;;;;;6128628;23;19994;-80
2022/03/21 20:17:29;;;;;;;90.18;32.83;;;4.10;32.90;;;;;;6154571;23;20034;-79
2022/03/21 20:19:54;;;;;;;68.40;27.67;;;4.00;32.60;;;;;;6128390;23;20017;-80
2022/03/21 20:22:20;;;;;;;64.70;24.85;;;4.00;32.80;;;;;;6128807;23;19998;-80
2022/03/21 20:24:47;;;;;;;67.40;28.00;;;4.00;32.90;;;;;;6127303;23;20021;-80
2022/03/21 20:27:12;;;;;;;;;;;3.90;32.80;;;;;;6129113;23;20002;-81
2022/03/21 20:29:39;;;;;;;44.10;16.52;;;4.00;32.80;;;;;;6154659;23;19896;-81
2022/03/21 20:32:09;;;;;;;44.00;18.98;;;4.00;32.60;;;;;;6154501;23;19993;-80
2022/03/21 20:34:42;;;;;;;59.67;26.10;;;4.00;32.70;;;;;;6128120;23;20004;-80
2022/03/21 20:37:09;;;;;;;46.15;22.63;;;4.00;32.90;;;;;;6148775;23;20002;-80
2022/03/21 20:39:35;;;;;;;45.85;21.98;;;3.90;33.00;;;;;;6129962;23;20022;-80
2022/03/21 20:42:04;;;;;;;;;;;3.80;32.90;;;;;;6156342;23;20002;-80
2022/03/21 20:44:31;;;;;;;34.72;15.88;;;3.80;33.00;;;;;;6154199;23;19889;-79
2022/03/21 20:46:57;;;;;;;28.67;14.18;;;3.80;32.90;;;;;;6156275;23;19990;-78
2022/03/21 20:49:23;;;;;;;26.85;13.35;;;3.90;32.70;;;;;;6123628;23;20025;-79
2022/03/21 20:51:49;;;;;;;25.08;12.75;;;3.80;32.70;;;;;;6155963;23;20006;-79
2022/03/21 20:54:16;;;;;;;23.40;11.85;;;3.90;33.00;;;;;;6156464;23;19997;-79
2022/03/21 20:56:43;;;;;;;28.25;15.38;;;3.80;33.30;;;;;;6131413;23;20010;-77
2022/03/21 20:59:09;;;;;;;41.13;19.42;;;3.70;33.40;;;;;;6131460;23;20004;-80
2022/03/21 21:01:35;;;;;;;31.40;16.38;;;3.70;34.30;;;;;;6155848;23;20002;-81
2022/03/21 21:04:01;;;;;;;17.80;8.32;;;3.60;33.00;;;;;;6155606;23;19990;-81
2022/03/21 21:06:28;;;;;;;19.67;7.72;;;3.70;32.40;;;;;;6154712;23;20014;-80
2022/03/21 21:08:54;;;;;;;15.05;7.70;;;3.80;32.10;;;;;;6154798;23;20039;-81
2022/03/21 21:11:20;;;;;;;16.75;8.70;;;3.80;32.30;;;;;;6128773;23;19994;-81
2022/03/21 21:13:46;;;;;;;18.75;8.88;;;3.90;32.30;;;;;;6154112;23;20005;-81
2022/03/21 21:16:12;;;;;;;17.92;9.32;;;3.80;32.60;;;;;;6154632;23;19996;-79
2022/03/21 21:18:38;;;;;;;20.52;9.50;;;3.70;33.00;;;;;;6154983;23;20005;-80
2022/03/21 21:21:04;;;;;;;24.00;12.63;;;3.70;33.00;;;;;;6129969;23;20022;-79
2022/03/21 21:23:30;;;;;;;24.90;11.88;;;3.60;33.10;;;;;;6150156;23;20017;-79
2022/03/21 21:25:57;;;;;;;40.83;17.42;;;3.50;33.50;;;;;;6156311;23;20030;-80
2022/03/21 21:28:25;;;;;;;24.65;11.95;;;3.60;33.70;;;;;;6131131;23;20029;-79
2022/03/21 21:30:51;;;;;;;17.95;7.97;;;3.50;33.50;;;;;;6156231;23;20033;-79
2022/03/21 21:33:18;;;;;;;;;;;3.60;33.30;;;;;;6155573;23;20022;-79
2022/03/21 21:40:58;;;;;;;16.83;6.93;;;3.50;33.60;;;;;;6177270;23;20029;-79
2022/03/21 21:43:24;;;;;;;14.25;6.40;;;3.50;33.60;;;;;;6183612;23;19990;-79
2022/03/21 21:45:50;;;;;;;12.88;5.82;;;3.60;33.40;;;;;;6210135;23;19997;-79
2022/03/21 21:48:17;;;;;;;12.30;5.68;;;3.60;33.10;;;;;;6213938;23;19986;-80
2022/03/21 21:50:44;;;;;;;12.07;6.30;;;3.70;33.00;;;;;;6214967;23;20015;-80
2022/03/21 21:53:10;;;;;;;11.00;4.65;;;3.80;32.90;;;;;;6214697;23;20003;-80
2022/03/21 21:55:36;;;;;;;;;;;3.70;32.90;;;;;;6213629;23;19986;-80
2022/03/21 21:58:02;;;;;;;11.43;4.47;;;3.70;33.00;;;;;;6213484;23;19924;-81
2022/03/21 22:00:28;;;;;;;12.20;6.18;;;3.70;33.00;;;;;;6214612;23;20009;-79
2022/03/21 22:02:57;;;;;;;14.07;6.90;;;3.70;33.00;;;;;;6188631;23;20008;-80
2022/03/21 22:05:24;;;;;;;31.05;12.57;;;3.70;33.20;;;;;;6213967;23;19996;-80
2022/03/21 22:07:50;;;;;;;24.25;11.70;;;3.60;33.10;;;;;;6212897;23;19996;-80
2022/03/21 22:10:17;;;;;;;23.75;10.80;;;3.60;33.40;;;;;;6184704;23;19997;-78
2022/03/21 22:12:44;;;;;;;34.95;12.30;;;3.60;33.70;;;;;;6212581;23;19993;-80
2022/03/21 22:15:11;;;;;;;33.03;13.90;;;3.50;33.80;;;;;;6214465;23;20048;-80
2022/03/21 22:17:37;;;;;;;35.05;14.00;;;3.50;34.10;;;;;;6214780;23;19989;-80
2022/03/21 22:20:04;;;;;;;25.67;9.73;;;3.50;34.30;;;;;;6214315;23;20056;-78
2022/03/21 22:22:31;;;;;;;16.60;6.30;;;3.40;34.50;;;;;;6215385;23;19985;-77
2022/03/21 22:24:57;;;;;;;18.00;8.98;;;3.50;34.90;;;;;;6215096;23;20005;-81
2022/03/21 22:27:23;;;;;;;12.00;5.40;;;3.40;35.20;;;;;;6189466;23;20005;-81
2022/03/21 22:29:49;;;;;;;15.70;7.68;;;3.20;35.10;;;;;;6214056;23;20005;-80
2022/03/21 22:32:15;;;;;;;;;;;3.30;35.60;;;;;;6190106;23;20042;-76
2022/03/21 22:47:53;;;;;;;16.55;6.65;;;3.30;35.70;;;;;;6223279;23;20041;-81